Time;durP1;ratioP1;P1;durP2;ratioP2;P2;SDS_P1;SDS_P2;PMS_P1;PMS_P2;Temp;Humidity;BMP_temperature;BMP_pressure;BME280_temperature;BME280_humidity;BME280_pressure;Samples;Min_cycle;Max_cycle;Signal;HPM_P1;HPM_P2
2023/11/01 00:01:00;;;;;;;13.13;12.33;;;9.50;99.90;;;;;;4891296;29;20208;-80
2023/11/01 00:04:07;;;;;;;13.30;12.47;;;9.60;99.90;;;;;;4882621;29;20249;-80
2023/11/01 00:10:31;;;;;;;13.30;12.50;;;9.70;99.90;;;;;;4886052;29;20201;-80
2023/11/01 00:17:46;;;;;;;;;;;;;;;;;;;;;
2023/11/01 00:24:54;;;;;;;13.10;12.40;;;9.80;99.90;;;;;;4885708;29;20208;-80
2023/11/01 00:28:50;;;;;;;13.20;12.40;;;9.80;99.90;;;;;;4888462;29;20617;-80
2023/11/01 00:32:23;;;;;;;13.00;12.20;;;9.80;99.90;;;;;;4887451;29;20304;-79
2023/11/01 00:46:43;;;;;;;13.57;12.67;;;9.80;99.90;;;;;;4820719;29;20246;-79
2023/11/01 00:50:31;;;;;;;14.27;13.17;;;9.80;99.90;;;;;;4748844;30;20709;-79
2023/11/01 01:38:32;;;;;;;;;;;;;;;;;;;;;
2023/11/01 01:49:20;;;;;;;12.10;11.47;;;9.50;99.90;;;;;;4798926;29;20211;-80
2023/11/01 01:52:51;;;;;;;12.20;11.50;;;9.40;99.90;;;;;;4865138;29;20756;-80
2023/11/01 02:21:55;;;;;;;12.13;11.50;;;9.30;99.90;;;;;;4848422;29;20211;-79
2023/11/01 02:25:21;;;;;;;12.27;11.57;;;9.40;99.90;;;;;;4790424;29;20497;-79
2023/11/01 02:28:49;;;;;;;;;;;;;;;;;;;;;
2023/11/01 02:40:01;;;;;;;;;;;;;;;;;;;;;
2023/11/01 03:03:12;;;;;;;;;;;;;;;;;;;;;
2023/11/01 03:18:05;;;;;;;;;;;;;;;;;;;;;
2023/11/01 03:28:45;;;;;;;12.90;12.13;;;9.30;99.90;;;;;;4704582;29;20212;-80
2023/11/01 03:32:42;;;;;;;12.60;11.90;;;9.20;99.90;;;;;;4821338;29;20764;-80
2023/11/01 03:35:28;;;;;;;13.17;12.13;;;9.20;99.90;;;;;;4754394;30;20213;-80
2023/11/01 03:37:58;;;;;;;13.13;12.33;;;9.20;99.90;;;;;;4749962;29;20358;-79
2023/11/01 03:41:05;;;;;;;13.53;12.53;;;9.10;99.90;;;;;;4801769;29;20200;-79
2023/11/01 03:51:30;;;;;;;11.97;11.27;;;9.00;99.90;;;;;;4702967;29;20676;-81
2023/11/01 03:53:57;;;;;;;11.83;11.13;;;8.90;99.90;;;;;;4824152;29;20343;-81
2023/11/01 03:56:24;;;;;;;11.53;10.90;;;8.80;99.90;;;;;;4811597;29;20228;-82
2023/11/01 04:22:47;;;;;;;5.97;5.30;;;8.80;99.90;;;;;;4808538;29;20202;-82
2023/11/01 04:25:18;;;;;;;3.20;3.00;;;8.80;99.90;;;;;;4805975;29;20204;-81
2023/11/01 04:27:48;;;;;;;5.50;5.10;;;8.90;99.90;;;;;;4848348;29;20253;-83
2023/11/01 04:30:17;;;;;;;7.90;7.40;;;8.90;99.90;;;;;;4875478;29;20262;-82
2023/11/01 04:32:44;;;;;;;8.70;8.20;;;8.80;99.90;;;;;;4859392;29;20206;-81
2023/11/01 04:35:11;;;;;;;5.47;5.07;;;8.90;99.90;;;;;;4866128;29;20209;-82
2023/11/01 04:37:38;;;;;;;3.33;3.03;;;8.80;99.90;;;;;;4854390;29;20894;-82
2023/11/01 04:40:07;;;;;;;5.00;4.70;;;8.80;99.90;;;;;;4847731;29;20630;-82
2023/11/01 04:42:34;;;;;;;5.07;4.70;;;8.80;99.90;;;;;;4849533;29;20576;-82
2023/11/01 04:45:01;;;;;;;5.10;4.70;;;8.80;99.90;;;;;;4860725;29;20242;-81
2023/11/01 04:47:31;;;;;;;9.93;9.23;;;8.80;99.90;;;;;;4854149;29;20219;-82
2023/11/01 04:49:58;;;;;;;11.10;10.40;;;8.80;99.90;;;;;;4853104;29;20214;-83
2023/11/01 04:52:25;;;;;;;5.10;4.70;;;8.80;99.90;;;;;;4859490;29;20231;-83
2023/11/01 04:54:52;;;;;;;3.30;3.10;;;8.80;99.90;;;;;;4852734;29;20210;-82
2023/11/01 04:57:19;;;;;;;3.80;3.50;;;8.80;99.90;;;;;;4852768;29;20228;-82
2023/11/01 04:59:46;;;;;;;7.30;6.60;;;8.80;99.90;;;;;;4864017;29;20298;-82
2023/11/01 05:02:13;;;;;;;6.27;5.83;;;8.80;99.90;;;;;;4852129;29;20211;-82
2023/11/01 05:04:41;;;;;;;5.10;4.63;;;8.80;99.90;;;;;;4858620;29;20325;-82
2023/11/01 05:07:08;;;;;;;5.83;5.43;;;8.80;99.90;;;;;;4859510;29;20241;-81
2023/11/01 05:13:13;;;;;;;11.30;10.60;;;8.80;99.90;;;;;;4847491;29;20770;-82
2023/11/01 05:16:17;;;;;;;10.43;9.73;;;8.80;99.90;;;;;;4846534;29;20228;-81
2023/11/01 05:19:08;;;;;;;3.90;3.00;;;8.80;99.90;;;;;;4859097;29;20206;-86
2023/11/01 05:21:37;;;;;;;3.33;3.00;;;8.90;99.90;;;;;;4853178;29;20668;-81
2023/11/01 05:24:05;;;;;;;2.90;2.70;;;8.90;99.90;;;;;;4856039;29;20225;-79
2023/11/01 05:26:34;;;;;;;2.83;2.63;;;8.90;99.90;;;;;;4857647;29;20236;-82
2023/11/01 05:29:01;;;;;;;2.70;2.50;;;8.90;99.90;;;;;;4858595;29;20655;-81
2023/11/01 05:31:28;;;;;;;3.27;2.97;;;8.90;99.90;;;;;;4877370;29;20209;-81
2023/11/01 05:33:55;;;;;;;3.20;2.90;;;8.90;99.90;;;;;;4867524;29;20214;-82
2023/11/01 05:36:23;;;;;;;3.00;2.80;;;8.90;99.90;;;;;;4853646;29;20214;-81
2023/11/01 05:38:52;;;;;;;3.13;2.83;;;8.90;99.90;;;;;;4848177;29;20763;-83
2023/11/01 05:41:25;;;;;;;3.00;2.80;;;8.90;99.90;;;;;;4854503;29;20336;-82
2023/11/01 05:43:55;;;;;;;2.90;2.70;;;8.90;99.90;;;;;;4857048;29;20590;-82
2023/11/01 05:46:22;;;;;;;3.00;2.70;;;8.90;99.90;;;;;;4921134;23;20220;-81
2023/11/01 05:48:49;;;;;;;3.73;3.07;;;8.90;99.90;;;;;;4905140;29;20303;-81
2023/11/01 05:51:17;;;;;;;4.53;4.20;;;8.90;99.90;;;;;;4894876;29;20225;-82
2023/11/01 05:53:44;;;;;;;3.40;3.20;;;8.90;99.90;;;;;;4889078;29;20201;-82
2023/11/01 05:56:15;;;;;;;3.20;2.90;;;9.00;99.90;;;;;;4884612;29;20251;-81
2023/11/01 05:58:42;;;;;;;3.10;2.87;;;9.00;99.90;;;;;;4885744;29;20201;-82
2023/11/01 06:01:09;;;;;;;3.80;3.50;;;8.90;99.90;;;;;;4885773;29;20221;-80
2023/11/01 06:03:36;;;;;;;5.83;5.43;;;9.00;99.90;;;;;;4886425;29;20198;-81
2023/11/01 06:06:04;;;;;;;8.40;7.90;;;8.90;99.90;;;;;;4877026;29;20234;-82
2023/11/01 06:08:38;;;;;;;8.20;6.50;;;8.90;99.90;;;;;;4874473;29;20209;-84
2023/11/01 06:11:59;;;;;;;7.30;6.90;;;8.90;99.90;;;;;;4873844;29;20679;-83
2023/11/01 06:14:29;;;;;;;5.60;5.20;;;9.00;99.90;;;;;;4889883;29;20205;-81
2023/11/01 06:17:00;;;;;;;4.23;4.03;;;8.90;99.90;;;;;;4873279;29;20682;-83
2023/11/01 06:19:31;;;;;;;9.30;8.70;;;8.90;99.90;;;;;;4867050;29;20205;-81
2023/11/01 06:22:05;;;;;;;4.17;3.87;;;9.00;99.90;;;;;;4862616;29;20206;-84
2023/11/01 06:24:35;;;;;;;7.27;6.77;;;9.00;99.90;;;;;;4866232;29;20228;-84
2023/11/01 06:27:33;;;;;;;10.93;10.23;;;9.00;99.90;;;;;;4873949;29;20282;-82
2023/11/01 06:30:04;;;;;;;11.27;10.57;;;9.00;99.90;;;;;;4877237;29;20209;-82
2023/11/01 06:32:32;;;;;;;10.80;10.03;;;9.10;99.90;;;;;;4867519;29;20280;-84
2023/11/01 06:34:59;;;;;;;4.27;3.97;;;9.10;99.90;;;;;;4860597;29;20206;-82
2023/11/01 06:37:26;;;;;;;5.93;3.50;;;9.20;99.90;;;;;;4861091;29;20277;-83
2023/11/01 06:39:53;;;;;;;9.37;8.50;;;9.30;99.90;;;;;;4863827;29;20234;-82
2023/11/01 06:42:20;;;;;;;7.20;6.77;;;9.30;99.90;;;;;;4871166;29;20268;-83
2023/11/01 06:44:55;;;;;;;11.60;10.90;;;9.40;99.90;;;;;;4860457;29;20209;-84
2023/11/01 06:47:24;;;;;;;6.43;6.00;;;9.50;99.90;;;;;;4863246;29;20229;-85
2023/11/01 06:49:50;;;;;;;3.50;2.87;;;9.50;99.90;;;;;;4873692;29;20202;-79
2023/11/01 06:52:17;;;;;;;9.10;8.53;;;9.60;99.90;;;;;;4867730;29;20221;-79
2023/11/01 06:54:44;;;;;;;5.37;4.90;;;9.70;99.90;;;;;;4864677;29;20194;-79
2023/11/01 06:57:11;;;;;;;6.83;6.43;;;9.70;99.90;;;;;;4876291;29;20232;-79
2023/11/01 06:59:39;;;;;;;3.97;3.70;;;9.80;99.90;;;;;;4873149;29;20193;-79
2023/11/01 07:02:06;;;;;;;5.63;5.23;;;9.80;99.90;;;;;;4872744;29;20679;-79
2023/11/01 07:04:34;;;;;;;13.30;12.43;;;9.90;99.90;;;;;;4870791;29;20209;-79
2023/11/01 07:07:01;;;;;;;3.50;3.20;;;9.90;99.90;;;;;;4872582;29;20217;-78
2023/11/01 07:09:28;;;;;;;6.43;5.93;;;10.00;99.90;;;;;;4867022;29;20210;-79
2023/11/01 07:11:55;;;;;;;3.40;3.10;;;10.10;99.90;;;;;;4868939;29;20206;-79
2023/11/01 07:14:22;;;;;;;7.23;6.73;;;10.10;99.90;;;;;;4875812;29;20210;-78
2023/11/01 07:16:49;;;;;;;3.40;3.20;;;10.20;99.90;;;;;;4873068;29;20460;-78
2023/11/01 07:19:16;;;;;;;4.80;4.40;;;10.20;99.90;;;;;;4864973;29;20687;-79
2023/11/01 07:21:45;;;;;;;5.13;4.73;;;10.30;99.90;;;;;;4868188;29;20202;-79
2023/11/01 07:24:13;;;;;;;11.77;10.97;;;10.30;99.90;;;;;;4869773;29;20205;-79
2023/11/01 07:26:40;;;;;;;7.37;6.87;;;10.40;99.90;;;;;;4867423;29;20225;-78
2023/11/01 07:29:07;;;;;;;11.37;10.67;;;10.50;99.90;;;;;;4867150;29;20214;-79
2023/11/01 07:31:34;;;;;;;3.33;3.13;;;10.50;99.90;;;;;;4870792;29;20586;-79
2023/11/01 07:34:00;;;;;;;3.20;2.90;;;10.60;99.90;;;;;;4870579;29;20211;-79
2023/11/01 07:36:27;;;;;;;9.00;8.50;;;10.70;99.90;;;;;;4872696;29;20584;-79
2023/11/01 07:38:55;;;;;;;10.87;10.20;;;10.80;99.90;;;;;;4869113;29;20292;-79
2023/11/01 07:41:22;;;;;;;10.57;9.90;;;11.00;99.90;;;;;;4868155;29;20215;-80
2023/11/01 07:43:49;;;;;;;10.60;9.90;;;11.20;99.90;;;;;;4867850;29;20583;-79
2023/11/01 07:46:16;;;;;;;4.63;4.37;;;11.40;99.90;;;;;;4866345;29;20243;-79
2023/11/01 07:48:43;;;;;;;5.57;5.13;;;11.70;99.90;;;;;;4877202;29;20794;-79
2023/11/01 07:51:09;;;;;;;4.20;4.00;;;11.90;99.90;;;;;;4871339;29;20220;-79
2023/11/01 07:53:36;;;;;;;10.50;9.80;;;12.20;99.90;;;;;;4863117;29;20671;-80
2023/11/01 07:56:06;;;;;;;10.73;10.13;;;12.40;99.90;;;;;;4871068;29;20230;-80
2023/11/01 07:58:33;;;;;;;8.13;7.63;;;12.60;99.90;;;;;;4869468;29;20202;-79
2023/11/01 08:01:00;;;;;;;10.63;10.03;;;12.90;99.90;;;;;;4869638;29;20269;-79
2023/11/01 08:03:29;;;;;;;10.20;9.60;;;13.10;99.90;;;;;;4875850;29;20202;-80
2023/11/01 08:05:56;;;;;;;10.20;9.60;;;13.40;99.90;;;;;;4867354;29;20257;-80
2023/11/01 08:08:22;;;;;;;10.67;9.90;;;13.70;99.90;;;;;;4870581;29;20722;-80
2023/11/01 08:10:49;;;;;;;10.60;10.00;;;14.00;99.90;;;;;;4870332;29;20210;-79
2023/11/01 08:13:17;;;;;;;10.60;10.00;;;14.20;99.90;;;;;;4871148;29;20711;-80
2023/11/01 08:15:44;;;;;;;2.87;2.67;;;14.40;99.90;;;;;;4868476;29;20218;-80
2023/11/01 08:18:11;;;;;;;2.40;2.30;;;14.60;99.90;;;;;;4872280;29;20275;-80
2023/11/01 08:20:39;;;;;;;10.37;9.67;;;14.80;99.90;;;;;;4870066;29;20207;-80
2023/11/01 08:23:06;;;;;;;9.93;9.40;;;15.00;99.90;;;;;;4870219;29;20196;-80
2023/11/01 08:25:33;;;;;;;10.20;9.50;;;15.40;99.90;;;;;;4866271;29;20253;-80
2023/11/01 08:28:00;;;;;;;7.40;7.00;;;15.70;99.90;;;;;;4867059;29;20580;-80
2023/11/01 08:30:28;;;;;;;9.90;9.30;;;15.80;99.90;;;;;;4870225;29;20210;-80
2023/11/01 08:32:55;;;;;;;2.60;2.40;;;15.90;99.90;;;;;;4869556;29;20209;-80
2023/11/01 08:35:22;;;;;;;9.60;9.00;;;15.80;99.90;;;;;;4871785;29;20212;-80
2023/11/01 08:37:49;;;;;;;2.50;2.30;;;16.00;99.90;;;;;;4867112;29;20206;-80
2023/11/01 08:40:15;;;;;;;9.40;8.80;;;16.10;99.90;;;;;;4870169;29;20209;-80
2023/11/01 08:42:42;;;;;;;10.20;9.60;;;16.20;99.90;;;;;;4872745;29;20209;-80
2023/11/01 08:45:10;;;;;;;8.67;8.17;;;16.20;99.90;;;;;;4867265;29;20573;-80
2023/11/01 08:47:39;;;;;;;9.13;8.60;;;16.10;99.90;;;;;;4868184;29;20236;-80
2023/11/01 08:50:10;;;;;;;9.70;9.10;;;16.10;99.90;;;;;;4870077;29;20209;-80
2023/11/01 08:52:37;;;;;;;9.13;8.47;;;16.20;99.90;;;;;;4868216;29;20555;-80
2023/11/01 08:55:04;;;;;;;9.03;8.53;;;16.30;99.90;;;;;;4868801;29;20237;-81
2023/11/01 08:57:31;;;;;;;3.60;2.70;;;16.20;99.90;;;;;;4868882;29;20213;-80
2023/11/01 08:59:58;;;;;;;8.60;8.10;;;16.30;99.90;;;;;;4868575;29;20206;-80
2023/11/01 09:02:26;;;;;;;8.10;7.60;;;16.40;99.90;;;;;;4866965;29;20205;-80
2023/11/01 09:04:56;;;;;;;9.40;8.80;;;16.30;99.90;;;;;;4868647;29;20210;-79
2023/11/01 09:07:22;;;;;;;9.30;8.70;;;16.20;99.90;;;;;;4876934;29;20593;-80
2023/11/01 09:09:50;;;;;;;5.53;5.13;;;16.10;99.90;;;;;;4866759;29;20206;-81
2023/11/01 09:12:17;;;;;;;2.47;2.27;;;16.10;99.90;;;;;;4868692;29;20278;-80
2023/11/01 09:14:44;;;;;;;2.60;2.40;;;16.10;99.90;;;;;;4871818;29;20288;-81
2023/11/01 09:17:11;;;;;;;6.43;6.03;;;16.20;99.90;;;;;;4871897;29;20229;-80
2023/11/01 09:19:38;;;;;;;9.47;8.87;;;16.20;99.90;;;;;;4865386;29;20202;-80
2023/11/01 09:22:07;;;;;;;8.97;8.47;;;16.20;99.90;;;;;;4865682;29;20198;-80
2023/11/01 09:24:42;;;;;;;9.00;8.50;;;16.20;99.90;;;;;;4870866;29;20257;-82
2023/11/01 09:27:17;;;;;;;9.00;8.50;;;16.20;99.90;;;;;;4866896;29;20785;-85
2023/11/01 09:30:22;;;;;;;8.87;8.37;;;16.10;99.90;;;;;;4876773;29;20204;-84
2023/11/01 09:32:49;;;;;;;2.40;2.30;;;16.10;99.90;;;;;;4877913;29;20208;-84
2023/11/01 09:35:21;;;;;;;2.80;2.60;;;16.10;99.90;;;;;;4881948;29;20189;-83
2023/11/01 09:37:57;;;;;;;2.70;2.50;;;16.20;99.90;;;;;;4869114;29;20241;-83
2023/11/01 09:40:24;;;;;;;8.90;8.30;;;16.30;99.90;;;;;;4863171;29;20205;-80
2023/11/01 09:42:53;;;;;;;8.80;8.20;;;16.30;99.90;;;;;;4873257;29;20263;-79
2023/11/01 09:45:20;;;;;;;8.27;7.80;;;16.20;99.90;;;;;;4885315;29;20254;-80
2023/11/01 09:47:49;;;;;;;2.30;2.10;;;16.20;99.90;;;;;;4869995;29;20229;-79
2023/11/01 09:50:17;;;;;;;3.20;2.10;;;16.30;99.90;;;;;;4872897;29;20220;-79
2023/11/01 09:52:44;;;;;;;2.30;2.20;;;16.20;99.90;;;;;;4870358;29;20285;-79
2023/11/01 09:55:14;;;;;;;6.37;5.97;;;16.20;99.90;;;;;;4869248;29;20209;-80
2023/11/01 09:57:43;;;;;;;7.90;7.40;;;16.20;99.90;;;;;;4874882;29;20200;-80
2023/11/01 10:00:12;;;;;;;7.97;7.47;;;16.10;99.90;;;;;;4880351;29;20689;-80
2023/11/01 10:02:39;;;;;;;7.80;7.30;;;16.10;99.90;;;;;;4864884;29;20196;-80
2023/11/01 10:05:06;;;;;;;2.50;2.30;;;16.10;99.90;;;;;;4867702;29;20216;-80
2023/11/01 10:07:33;;;;;;;4.73;4.43;;;15.90;99.90;;;;;;4871569;29;20234;-80
2023/11/01 10:10:23;;;;;;;8.13;7.63;;;15.90;99.90;;;;;;4870620;29;20737;-84
2023/11/01 10:12:50;;;;;;;3.03;2.80;;;15.80;99.90;;;;;;4879426;29;20609;-80
2023/11/01 10:15:21;;;;;;;2.30;2.20;;;15.90;99.90;;;;;;4874605;29;20249;-79
2023/11/01 10:17:48;;;;;;;3.37;3.20;;;15.90;99.90;;;;;;4872501;29;20204;-79
2023/11/01 10:20:22;;;;;;;7.97;7.47;;;15.80;99.90;;;;;;4865547;29;20262;-80
2023/11/01 10:22:49;;;;;;;6.00;5.70;;;15.80;99.90;;;;;;4875436;29;20304;-79
2023/11/01 10:25:19;;;;;;;7.60;7.10;;;15.80;99.90;;;;;;4866152;29;20209;-79
2023/11/01 10:27:46;;;;;;;7.33;6.93;;;15.90;99.90;;;;;;4875752;29;20214;-77
2023/11/01 10:30:14;;;;;;;7.83;7.33;;;15.80;99.90;;;;;;4881123;29;20236;-80
2023/11/01 10:32:53;;;;;;;5.90;5.50;;;15.80;99.90;;;;;;4878893;29;20210;-80
2023/11/01 10:35:20;;;;;;;2.80;2.70;;;15.80;99.90;;;;;;4870090;29;20204;-79
2023/11/01 10:37:47;;;;;;;4.40;4.10;;;15.70;99.90;;;;;;4877858;29;20190;-79
2023/11/01 10:40:15;;;;;;;3.73;3.10;;;15.60;99.90;;;;;;4868424;29;20321;-79
2023/11/01 10:42:45;;;;;;;2.77;2.57;;;15.50;99.90;;;;;;4871362;29;20202;-79
2023/11/01 10:45:12;;;;;;;2.93;2.77;;;15.40;99.90;;;;;;4878051;29;20647;-78
2023/11/01 10:47:55;;;;;;;7.63;7.03;;;15.40;99.90;;;;;;4877879;29;20203;-84
2023/11/01 10:50:27;;;;;;;11.57;10.97;;;15.40;99.90;;;;;;4869583;29;20208;-80
2023/11/01 10:52:54;;;;;;;4.17;3.87;;;15.30;99.90;;;;;;4878849;29;20305;-78
2023/11/01 10:55:24;;;;;;;10.40;9.80;;;15.30;99.90;;;;;;4876508;29;20211;-79
2023/11/01 10:57:52;;;;;;;8.97;8.47;;;15.40;99.90;;;;;;4870263;29;20237;-80
2023/11/01 11:00:26;;;;;;;5.20;4.80;;;15.40;99.90;;;;;;4877956;29;20189;-79
2023/11/01 11:02:58;;;;;;;8.17;7.50;;;15.40;99.90;;;;;;4881892;29;20258;-81
2023/11/01 11:05:28;;;;;;;9.60;9.03;;;15.40;99.90;;;;;;4872615;29;20204;-83
2023/11/01 11:07:57;;;;;;;7.83;7.43;;;15.40;99.90;;;;;;4880138;29;20227;-79
2023/11/01 11:10:39;;;;;;;9.00;8.50;;;15.30;99.90;;;;;;4879448;29;20639;-81
2023/11/01 11:13:30;;;;;;;5.77;5.37;;;15.20;99.90;;;;;;4874708;29;20203;-81
2023/11/01 11:16:08;;;;;;;8.77;8.20;;;15.20;99.90;;;;;;4874566;29;20231;-81
2023/11/01 11:19:08;;;;;;;9.10;8.40;;;15.20;99.90;;;;;;4871190;29;20255;-81
2023/11/01 11:22:02;;;;;;;9.27;8.67;;;15.20;99.90;;;;;;4878042;29;20697;-80
2023/11/01 11:24:52;;;;;;;9.10;8.50;;;15.20;99.90;;;;;;4876853;29;20678;-80
2023/11/01 11:27:50;;;;;;;9.37;8.67;;;15.20;99.90;;;;;;4871753;29;20304;-80
2023/11/01 11:30:57;;;;;;;10.50;9.77;;;15.30;99.90;;;;;;4874400;29;20225;-81
2023/11/01 11:33:29;;;;;;;9.40;8.60;;;15.40;99.90;;;;;;4877518;29;20226;-80
2023/11/01 11:36:13;;;;;;;9.30;8.70;;;15.60;99.90;;;;;;4871235;29;20224;-83
2023/11/01 11:38:49;;;;;;;2.45;2.30;;;15.70;99.90;;;;;;4874020;29;20434;-80
2023/11/01 11:45:22;;;;;;;8.80;8.30;;;16.00;99.90;;;;;;4764073;30;20209;-81
2023/11/01 11:47:51;;;;;;;8.97;8.33;;;16.10;99.90;;;;;;4808387;29;20255;-81
2023/11/01 11:50:24;;;;;;;8.50;8.00;;;16.20;99.90;;;;;;4823447;29;20511;-81
2023/11/01 11:52:54;;;;;;;8.67;8.07;;;16.20;99.90;;;;;;4843516;29;20204;-80
2023/11/01 11:58:00;;;;;;;2.40;2.20;;;16.40;99.90;;;;;;4882370;29;20231;-82
2023/11/01 12:00:27;;;;;;;2.17;1.97;;;16.30;99.90;;;;;;4873467;29;20579;-80
2023/11/01 12:02:56;;;;;;;2.00;1.90;;;16.30;99.90;;;;;;4881368;29;20210;-79
2023/11/01 12:05:34;;;;;;;2.40;2.20;;;16.30;99.90;;;;;;4886039;29;20239;-79
2023/11/01 12:08:17;;;;;;;3.90;3.60;;;16.30;99.90;;;;;;4889400;29;20223;-80
2023/11/01 12:14:48;;;;;;;6.30;5.90;;;16.10;99.90;;;;;;4859255;29;20198;-80
2023/11/01 12:17:17;;;;;;;9.70;8.90;;;15.80;99.90;;;;;;4858890;29;20707;-79
2023/11/01 12:19:44;;;;;;;8.83;8.27;;;15.80;99.90;;;;;;4861572;29;20211;-82
2023/11/01 12:22:13;;;;;;;8.43;7.93;;;15.70;99.90;;;;;;4865462;29;20630;-82
2023/11/01 12:24:44;;;;;;;8.37;7.87;;;15.70;99.90;;;;;;4869050;29;20544;-82
2023/11/01 12:27:13;;;;;;;8.40;7.80;;;15.60;99.90;;;;;;4862514;29;20229;-82
2023/11/01 12:29:44;;;;;;;8.20;7.70;;;15.50;99.90;;;;;;4867921;29;20236;-83
2023/11/01 12:32:13;;;;;;;8.80;8.20;;;15.40;99.90;;;;;;4864030;29;20283;-82
2023/11/01 12:35:01;;;;;;;8.17;7.70;;;15.40;99.90;;;;;;4868875;29;20800;-81
2023/11/01 12:37:31;;;;;;;8.23;7.73;;;15.30;99.90;;;;;;4865198;29;20608;-80
2023/11/01 12:40:20;;;;;;;8.60;7.90;;;15.30;99.90;;;;;;4869234;29;20240;-81
2023/11/01 12:42:49;;;;;;;8.13;7.53;;;15.40;99.90;;;;;;4862352;29;20216;-78
2023/11/01 12:45:17;;;;;;;8.90;8.23;;;15.50;99.90;;;;;;4862047;29;20213;-80
2023/11/01 12:47:46;;;;;;;8.60;8.10;;;15.60;99.90;;;;;;4863752;29;20201;-80
2023/11/01 12:50:17;;;;;;;8.73;8.03;;;15.50;99.90;;;;;;4861732;29;20233;-80
2023/11/01 12:52:45;;;;;;;9.00;8.27;;;15.50;99.90;;;;;;4869376;29;20203;-81
2023/11/01 12:55:12;;;;;;;9.27;8.57;;;15.50;99.90;;;;;;4861155;29;20714;-80
2023/11/01 12:57:43;;;;;;;9.30;8.60;;;15.60;99.90;;;;;;4861172;29;20604;-80
2023/11/01 13:00:13;;;;;;;9.17;8.57;;;15.60;99.90;;;;;;4862449;29;20235;-80
2023/11/01 13:02:40;;;;;;;9.30;8.53;;;15.60;99.90;;;;;;4863413;29;20209;-83
2023/11/01 13:05:12;;;;;;;9.00;8.40;;;15.60;99.90;;;;;;4864898;29;20213;-80
2023/11/01 13:07:44;;;;;;;8.50;7.80;;;15.60;99.90;;;;;;4863385;29;20213;-80
2023/11/01 13:10:53;;;;;;;8.73;8.13;;;15.60;99.90;;;;;;4864237;29;20650;-84
2023/11/01 13:13:21;;;;;;;8.80;8.00;;;15.50;99.90;;;;;;4865830;29;20209;-81
2023/11/01 13:15:47;;;;;;;8.57;7.90;;;15.40;99.90;;;;;;4863917;29;20234;-81
2023/11/01 13:18:14;;;;;;;8.40;7.60;;;15.30;99.90;;;;;;4866310;29;20636;-81
2023/11/01 13:20:43;;;;;;;8.27;7.70;;;15.20;99.90;;;;;;4872997;29;20304;-81
2023/11/01 13:23:10;;;;;;;7.70;7.20;;;15.10;99.90;;;;;;4856994;29;20202;-81
2023/11/01 13:25:37;;;;;;;8.00;7.50;;;15.10;99.90;;;;;;4858753;29;20223;-81
2023/11/01 13:28:05;;;;;;;8.30;7.80;;;15.10;99.90;;;;;;4863633;29;20206;-81
2023/11/01 13:30:33;;;;;;;8.30;7.73;;;15.00;99.90;;;;;;4861597;29;20237;-81
2023/11/01 13:33:00;;;;;;;8.47;7.77;;;15.10;99.90;;;;;;4862836;29;20278;-81
2023/11/01 13:35:26;;;;;;;8.23;7.70;;;15.10;99.90;;;;;;4863008;29;20719;-81
2023/11/01 13:37:53;;;;;;;8.33;7.83;;;15.10;99.90;;;;;;4862104;29;20217;-81
2023/11/01 13:40:20;;;;;;;8.63;8.02;;;15.20;99.90;;;;;;4869343;29;20446;-81
2023/11/01 13:42:47;;;;;;;8.85;8.35;;;15.20;99.90;;;;;;4870281;29;20458;-81
2023/11/01 13:45:15;;;;;;;8.60;8.10;;;15.30;99.90;;;;;;4862327;29;20272;-81
2023/11/01 13:47:42;;;;;;;8.17;7.70;;;15.40;99.90;;;;;;4862203;29;20682;-82
2023/11/01 13:50:10;;;;;;;7.97;7.47;;;15.40;99.90;;;;;;4864132;29;20228;-81
2023/11/01 13:52:36;;;;;;;7.80;7.40;;;15.40;99.90;;;;;;4862461;29;20204;-81
2023/11/01 13:55:04;;;;;;;8.20;7.70;;;15.30;99.90;;;;;;4867183;29;20214;-81
2023/11/01 13:57:31;;;;;;;7.70;7.30;;;15.30;99.90;;;;;;4864853;29;20518;-81
2023/11/01 13:59:57;;;;;;;8.70;8.10;;;15.20;99.90;;;;;;4861270;29;20211;-81
2023/11/01 14:02:26;;;;;;;7.60;7.20;;;15.10;99.90;;;;;;4861181;29;20202;-81
2023/11/01 14:04:52;;;;;;;7.43;7.03;;;15.10;99.90;;;;;;4862629;29;20219;-81
2023/11/01 14:07:19;;;;;;;8.10;7.60;;;15.00;99.90;;;;;;4861817;29;20955;-81
2023/11/01 14:09:48;;;;;;;7.00;6.50;;;15.00;99.90;;;;;;4859870;29;20452;-81
2023/11/01 14:12:14;;;;;;;8.43;7.90;;;14.90;99.90;;;;;;4860290;29;20209;-81
2023/11/01 14:14:41;;;;;;;8.20;7.70;;;14.90;99.90;;;;;;4860456;29;20208;-81
2023/11/01 14:17:08;;;;;;;8.53;7.87;;;14.90;99.90;;;;;;4863173;29;20247;-81
2023/11/01 14:19:36;;;;;;;8.17;7.67;;;14.90;99.90;;;;;;4860740;29;20203;-81
2023/11/01 14:22:03;;;;;;;8.37;7.80;;;14.90;99.90;;;;;;4860744;29;20212;-81
2023/11/01 14:24:30;;;;;;;8.90;8.20;;;14.80;99.90;;;;;;4868572;29;20249;-82
2023/11/01 14:26:57;;;;;;;8.30;7.80;;;14.80;99.90;;;;;;4861717;29;20254;-81
2023/11/01 14:29:25;;;;;;;8.50;8.00;;;14.70;99.90;;;;;;4861109;29;20224;-81
2023/11/01 14:31:52;;;;;;;8.33;7.83;;;14.70;99.90;;;;;;4863170;29;20223;-81
2023/11/01 14:34:19;;;;;;;8.03;7.53;;;14.60;99.90;;;;;;4867516;29;20197;-81
2023/11/01 14:36:48;;;;;;;8.17;7.67;;;14.50;99.90;;;;;;4861577;29;20226;-81
2023/11/01 14:39:15;;;;;;;8.10;7.60;;;14.50;99.90;;;;;;4860176;29;20205;-81
2023/11/01 14:41:42;;;;;;;9.00;8.40;;;14.40;99.90;;;;;;4874594;29;20209;-81
2023/11/01 14:44:09;;;;;;;8.47;7.97;;;14.40;99.90;;;;;;4865028;29;20202;-82
2023/11/01 14:46:38;;;;;;;8.67;8.17;;;14.40;99.90;;;;;;4860385;29;20605;-84
2023/11/01 14:49:07;;;;;;;8.90;8.40;;;14.30;99.90;;;;;;4859739;29;20714;-82
2023/11/01 14:51:34;;;;;;;8.10;7.60;;;14.30;99.90;;;;;;4860226;29;20202;-84
2023/11/01 14:54:03;;;;;;;8.23;7.63;;;14.20;99.90;;;;;;4860577;29;20216;-84
2023/11/01 14:56:30;;;;;;;8.23;7.73;;;14.20;99.90;;;;;;4867307;29;21578;-82
2023/11/01 14:59:00;;;;;;;8.40;7.93;;;14.20;99.90;;;;;;4872167;29;20281;-84
2023/11/01 15:01:27;;;;;;;8.20;7.70;;;14.20;99.90;;;;;;4865010;29;20199;-83
2023/11/01 15:03:53;;;;;;;8.33;7.83;;;14.10;99.90;;;;;;4860396;29;20203;-83
2023/11/01 15:06:23;;;;;;;8.57;7.97;;;14.10;99.90;;;;;;4861288;29;20228;-84
2023/11/01 15:08:50;;;;;;;7.87;7.47;;;14.00;99.90;;;;;;4867878;29;20291;-83
2023/11/01 15:11:18;;;;;;;8.80;8.20;;;13.90;99.90;;;;;;4861186;29;20202;-84
2023/11/01 15:13:45;;;;;;;8.73;8.23;;;13.90;99.90;;;;;;4861344;29;20210;-83
2023/11/01 15:16:13;;;;;;;8.60;8.00;;;13.90;99.90;;;;;;4861199;29;20222;-84
2023/11/01 15:18:40;;;;;;;9.63;8.93;;;13.80;99.90;;;;;;4860406;29;20676;-82
2023/11/01 15:21:08;;;;;;;9.17;8.50;;;13.70;99.90;;;;;;4868573;29;20207;-82
2023/11/01 15:23:37;;;;;;;9.40;8.70;;;13.70;99.90;;;;;;4863783;29;20324;-82
2023/11/01 15:26:04;;;;;;;9.50;8.90;;;13.70;99.90;;;;;;4881965;29;20655;-83
2023/11/01 15:28:33;;;;;;;9.70;9.00;;;13.60;99.90;;;;;;4865225;29;20264;-82
2023/11/01 15:30:59;;;;;;;8.80;8.20;;;13.60;99.90;;;;;;4863675;29;20249;-83
2023/11/01 15:33:26;;;;;;;9.20;8.60;;;13.50;99.90;;;;;;4865447;29;20226;-83
2023/11/01 15:35:53;;;;;;;9.17;8.57;;;13.50;99.90;;;;;;4867121;29;20298;-82
2023/11/01 15:38:20;;;;;;;9.23;8.63;;;13.40;99.90;;;;;;4866754;29;20200;-83
2023/11/01 15:40:47;;;;;;;8.70;8.10;;;13.40;99.90;;;;;;4865216;29;20763;-82
2023/11/01 15:43:14;;;;;;;8.90;8.30;;;13.40;99.90;;;;;;4866420;29;20195;-82
2023/11/01 15:45:44;;;;;;;9.07;8.37;;;13.30;99.90;;;;;;4867186;29;20237;-83
2023/11/01 15:48:11;;;;;;;8.50;8.00;;;13.40;99.90;;;;;;4867373;29;20465;-82
2023/11/01 15:50:41;;;;;;;8.77;8.17;;;13.30;99.90;;;;;;4879713;29;20265;-82
2023/11/01 15:53:08;;;;;;;9.00;8.40;;;13.30;99.90;;;;;;4869177;29;20213;-82
2023/11/01 15:55:35;;;;;;;8.77;8.17;;;13.30;99.90;;;;;;4864234;29;20226;-83
2023/11/01 15:58:02;;;;;;;8.73;8.13;;;13.30;99.90;;;;;;4862480;29;20217;-83
2023/11/01 16:00:29;;;;;;;8.87;8.30;;;13.20;99.90;;;;;;4864745;29;20195;-82
2023/11/01 16:02:57;;;;;;;8.10;7.60;;;13.20;99.90;;;;;;4862039;29;20209;-83
2023/11/01 16:05:24;;;;;;;7.97;7.47;;;13.20;99.90;;;;;;4874831;29;20294;-82
2023/11/01 16:07:51;;;;;;;8.27;7.77;;;13.20;99.90;;;;;;4877664;29;20198;-82
2023/11/01 16:10:18;;;;;;;8.20;7.63;;;13.10;99.90;;;;;;4875467;29;20221;-84
2023/11/01 16:12:45;;;;;;;8.57;8.07;;;13.10;99.90;;;;;;4863374;29;20210;-84
2023/11/01 16:15:12;;;;;;;8.53;8.03;;;13.10;99.90;;;;;;4862117;29;20213;-83
2023/11/01 16:17:39;;;;;;;8.60;8.10;;;13.10;99.90;;;;;;4864437;29;20202;-84
2023/11/01 16:20:09;;;;;;;8.40;7.90;;;13.10;99.90;;;;;;4864479;29;20218;-83
2023/11/01 16:22:36;;;;;;;8.53;8.03;;;13.10;99.90;;;;;;4860812;29;20301;-82
2023/11/01 16:25:03;;;;;;;9.17;8.40;;;13.10;99.90;;;;;;4878333;29;20209;-84
2023/11/01 16:27:30;;;;;;;8.90;8.30;;;13.00;99.90;;;;;;4870480;29;20239;-79
2023/11/01 16:29:57;;;;;;;9.83;8.97;;;13.00;99.90;;;;;;4864171;29;20259;-81
2023/11/01 16:32:23;;;;;;;8.70;8.00;;;13.00;99.90;;;;;;4869590;29;20216;-77
2023/11/01 16:34:50;;;;;;;8.93;8.33;;;13.00;99.90;;;;;;4861415;29;20209;-81
2023/11/01 16:37:18;;;;;;;9.30;8.70;;;12.90;99.90;;;;;;4861989;29;20236;-82